Latest Weather Observations for Fawkner Beacon

IDV60901

Issued at 5:21 am EDT Sunday 25 October 2020 (issued every 10 minutes, with the page automatically refreshed every 10 minutes)

About weather observations | Map of Melbourne area stations | Latest observations for Melbourne area | Other Formats
Station Details ID: 086376 Name: FAWKNER BEACON Lat: -37.95 Lon: 144.93 Height: 17.0 m
Data from the previous 72 hours. | See also: Recent months at Fawkner Beacon
Date/Time
EDT
Temp
°C
App
Temp
°C
Dew
Point
°C
Rel
Hum
%
Delta-T
°C
Wind Press
QNH
hPa
Press
MSL
hPa
Rain since
9am
mm
Dir  Spd
km/h
Gust
km/h
Spd
kts
Gust
kts
25/05:00am - - - - - S 43 61 23 33 - - -
25/04:47am - - - - - S 41 65 22 35 - - -
25/04:30am - - - - - SSE 46 61 25 33 - - -
25/04:09am - - - - - SSE 41 59 22 32 - - -
25/04:00am - - - - - S 39 50 21 27 - - -
25/03:30am - - - - - SSE 46 52 25 28 - - -
25/03:00am - - - - - S 44 54 24 29 - - -
25/02:30am - - - - - SSE 46 59 25 32 - - -
25/02:00am - - - - - SSE 44 52 24 28 - - -
25/01:30am - - - - - S 44 52 24 28 - - -
25/01:00am - - - - - S 46 54 25 29 - - -
25/12:30am - - - - - S 41 48 22 26 - - -
25/12:00am - - - - - S 44 54 24 29 - - -
 
Date/Time
EDT
Temp
°C
App
Temp
°C
Dew
Point
°C
Rel
Hum
%
Delta-T
°C
Wind Press
QNH
hPa
Press
MSL
hPa
Rain since
9am
mm
Dir  Spd
km/h
Gust
km/h
Spd
kts
Gust
kts
24/11:30pm - - - - - SSW 39 52 21 28 - - -
24/11:17pm - - - - - SSW 41 57 22 31 - - -
24/11:00pm - - - - - SSW 32 39 17 21 - - -
24/10:36pm - - - - - SSW 30 48 16 26 - - -
24/10:30pm - - - - - SSW 32 39 17 21 - - -
24/10:18pm - - - - - SSW 33 43 18 23 - - -
24/10:00pm - - - - - S 37 44 20 24 - - -
24/09:58pm - - - - - S 35 44 19 24 - - -
24/09:30pm - - - - - SSW 43 54 23 29 - - -
24/09:00pm - - - - - SSW 33 43 18 23 - - -
24/08:30pm - - - - - S 33 43 18 23 - - -
24/08:00pm - - - - - SSE 39 46 21 25 - - -
24/07:30pm - - - - - SSW 33 43 18 23 - - -
24/07:00pm - - - - - SSW 44 54 24 29 - - -
24/06:30pm - - - - - S 43 50 23 27 - - -
24/06:00pm - - - - - S 50 61 27 33 - - -
24/05:30pm - - - - - S 50 61 27 33 - - -
24/05:00pm - - - - - SSW 50 59 27 32 - - -
24/04:30pm - - - - - S 48 59 26 32 - - -
24/04:00pm - - - - - SSW 54 63 29 34 - - -
24/03:50pm - - - - - S 39 57 21 31 - - -
24/03:30pm - - - - - S 37 46 20 25 - - -
24/03:00pm - - - - - S 43 46 23 25 - - -
24/02:30pm - - - - - S 37 43 20 23 - - -
24/02:00pm - - - - - SSW 37 48 20 26 - - -
24/01:30pm - - - - - SSW 39 48 21 26 - - -
24/01:00pm - - - - - SSW 32 41 17 22 - - -
24/12:30pm - - - - - S 28 33 15 18 - - -
24/12:00pm - - - - - S 30 35 16 19 - - -
24/11:30am - - - - - S 33 41 18 22 - - -
24/11:00am - - - - - S 33 41 18 22 - - -
24/10:30am - - - - - S 37 43 20 23 - - -
24/10:00am - - - - - S 39 46 21 25 - - -
24/09:30am - - - - - SSW 39 46 21 25 - - -
24/09:00am - - - - - S 30 33 16 18 - - -
24/08:30am - - - - - S 35 44 19 24 - - -
24/08:00am - - - - - S 44 50 24 27 - - -
24/07:30am - - - - - SSW 41 50 22 27 - - -
24/07:00am - - - - - S 43 52 23 28 - - -
24/06:30am - - - - - S 33 41 18 22 - - -
24/06:00am - - - - - S 39 44 21 24 - - -
24/05:30am - - - - - S 35 41 19 22 - - -
24/05:00am - - - - - S 37 44 20 24 - - -
24/04:30am - - - - - S 32 35 17 19 - - -
24/04:00am - - - - - SSW 28 33 15 18 - - -
24/03:30am - - - - - SSW 24 28 13 15 - - -
24/03:00am - - - - - SW 20 24 11 13 - - -
24/02:30am - - - - - SW 15 17 8 9 - - -
24/02:00am - - - - - SW 15 17 8 9 - - -
24/01:30am - - - - - SW 15 20 8 11 - - -
24/01:00am - - - - - SSW 17 20 9 11 - - -
24/12:30am - - - - - S 20 24 11 13 - - -
24/12:00am - - - - - SSW 24 28 13 15 - - -
 
Date/Time
EDT
Temp
°C
App
Temp
°C
Dew
Point
°C
Rel
Hum
%
Delta-T
°C
Wind Press
QNH
hPa
Press
MSL
hPa
Rain since
9am
mm
Dir  Spd
km/h
Gust
km/h
Spd
kts
Gust
kts
23/11:30pm - - - - - SSW 26 32 14 17 - - -
23/11:00pm - - - - - SW 24 28 13 15 - - -
23/10:30pm - - - - - SSW 17 24 9 13 - - -
23/10:00pm - - - - - SSW 13 17 7 9 - - -
23/09:30pm - - - - - S 11 13 6 7 - - -
23/09:00pm - - - - - S 11 15 6 8 - - -
23/08:30pm - - - - - SSE 11 13 6 7 - - -
23/08:00pm - - - - - SSE 17 20 9 11 - - -
23/07:30pm - - - - - SSW 9 11 5 6 - - -
23/07:00pm - - - - - SW 13 15 7 8 - - -
23/06:30pm - - - - - WSW 13 15 7 8 - - -
23/06:00pm - - - - - WSW 13 15 7 8 - - -
23/05:30pm - - - - - SW 11 13 6 7 - - -
23/05:00pm - - - - - SSW 7 9 4 5 - - -
23/04:30pm - - - - - SSE 4 9 2 5 - - -
23/04:00pm - - - - - ESE 9 15 5 8 - - -
23/03:30pm - - - - - S 13 17 7 9 - - -
23/03:00pm - - - - - SW 15 20 8 11 - - -
23/02:30pm - - - - - SW 11 15 6 8 - - -
23/02:00pm - - - - - SSW 11 15 6 8 - - -
23/01:30pm - - - - - ESE 7 9 4 5 - - -
23/01:00pm - - - - - SSE 11 13 6 7 - - -
23/12:30pm - - - - - SSW 9 13 5 7 - - -
23/12:00pm - - - - - SSW 7 9 4 5 - - -
23/11:30am - - - - - SE 6 7 3 4 - - -
23/11:00am - - - - - SSE 9 11 5 6 - - -
23/10:30am - - - - - SSE 11 13 6 7 - - -
23/10:00am - - - - - SE 11 13 6 7 - - -
23/09:30am - - - - - ESE 11 13 6 7 - - -
23/09:00am - - - - - ESE 28 33 15 18 - - -
23/08:30am - - - - - ESE 13 20 7 11 - - -
23/08:00am - - - - - SE 13 17 7 9 - - -
23/07:30am - - - - - E 9 11 5 6 - - -
23/07:00am - - - - - CALM 0 6 0 3 - - -
23/06:30am - - - - - NNE 9 11 5 6 - - -
23/06:00am - - - - - NNW 4 7 2 4 - - -
23/05:30am - - - - - NW 6 9 3 5 - - -
23/05:00am - - - - - N 9 13 5 7 - - -
23/04:30am - - - - - N 9 11 5 6 - - -
23/04:00am - - - - - N 11 15 6 8 - - -
23/03:30am - - - - - NNW 13 17 7 9 - - -
23/03:00am - - - - - NNW 7 11 4 6 - - -
23/02:30am - - - - - CALM 0 0 0 0 - - -
23/02:00am - - - - - S 2 6 1 3 - - -
23/01:30am - - - - - SSE 7 9 4 5 - - -
23/01:00am - - - - - S 6 7 3 4 - - -
23/12:30am - - - - - S 6 7 3 4 - - -
23/12:00am - - - - - S 7 9 4 5 - - -
 
Date/Time
EDT
Temp
°C
App
Temp
°C
Dew
Point
°C
Rel
Hum
%
Delta-T
°C
Wind Press
QNH
hPa
Press
MSL
hPa
Rain since
9am
mm
Dir  Spd
km/h
Gust
km/h
Spd
kts
Gust
kts
22/11:30pm - - - - - SSE 6 7 3 4 - - -
22/11:00pm - - - - - SE 7 9 4 5 - - -
22/10:30pm - - - - - SSE 13 17 7 9 - - -
22/10:00pm - - - - - SSE 15 22 8 12 - - -
22/09:30pm - - - - - SE 15 20 8 11 - - -
22/09:00pm - - - - - SE 20 24 11 13 - - -
22/08:30pm - - - - - SE 22 24 12 13 - - -
22/08:00pm - - - - - SE 26 30 14 16 - - -
22/07:30pm - - - - - SE 28 32 15 17 - - -
22/07:00pm - - - - - SE 26 30 14 16 - - -
22/06:30pm - - - - - SSE 28 33 15 18 - - -
22/06:00pm - - - - - SSE 28 33 15 18 - - -
22/05:30pm - - - - - S 28 32 15 17 - - -
22/05:00pm - - - - - S 30 33 16 18 - - -
22/04:30pm - - - - - S 32 35 17 19 - - -
22/04:00pm - - - - - S 30 33 16 18 - - -
22/03:30pm - - - - - S 30 35 16 19 - - -
22/03:00pm - - - - - S 26 30 14 16 - - -
22/02:30pm - - - - - S 24 28 13 15 - - -
22/02:00pm - - - - - S 22 26 12 14 - - -
22/01:30pm - - - - - S 15 20 8 11 - - -
22/01:00pm - - - - - S 17 20 9 11 - - -
22/12:30pm - - - - - S 15 17 8 9 - - -
22/12:00pm - - - - - S 13 15 7 8 - - -
22/11:30am - - - - - SE 9 13 5 7 - - -
22/11:00am - - - - - SE 9 11 5 6 - - -
22/10:30am - - - - - SE 9 13 5 7 - - -
22/10:00am - - - - - ESE 11 13 6 7 - - -
22/09:30am - - - - - ESE 13 15 7 8 - - -
22/09:00am - - - - - E 13 15 7 8 - - -
22/08:30am - - - - - ESE 15 20 8 11 - - -
22/08:00am - - - - - ESE 15 17 8 9 - - -
22/07:30am - - - - - ESE 13 17 7 9 - - -
22/07:00am - - - - - ESE 13 15 7 8 - - -
22/06:30am - - - - - E 13 15 7 8 - - -
22/06:00am - - - - - ESE 17 20 9 11 - - -
22/05:30am - - - - - ESE 19 22 10 12 - - -

Latest Capital City Observations: Canberra | Sydney | Melbourne | Brisbane | Adelaide | Perth | Hobart | Darwin

Other formats

Comma delimited format used in spreadsheet applications
http://www.bom.gov.au/fwo/IDV60901/IDV60901.95872.axf

JavaScript Object Notation format (JSON) in row-major order
http://www.bom.gov.au/fwo/IDV60901/IDV60901.95872.json

Data quality

Most of these data are generated automatically and are frequently updated. Quality checks on data are not normally performed. It is possible for incorrect values to appear. Refer to information at About Latest Weather Observations and please check the disclaimer before using these data.